sensor_id;sensor_type;location;lat;lon;timestamp;temperature;humidity
53880;DHT22;39791;53.184;5.486;2023-07-31T00:00:06;19.60;99.90
53880;DHT22;39791;53.184;5.486;2023-07-31T00:02:31;19.70;99.90
53880;DHT22;39791;53.184;5.486;2023-07-31T00:04:57;19.50;99.90
53880;DHT22;39791;53.184;5.486;2023-07-31T00:07:23;19.60;99.90
53880;DHT22;39791;53.184;5.486;2023-07-31T00:09:48;19.20;99.90
53880;DHT22;39791;53.184;5.486;2023-07-31T00:12:14;19.10;99.90
53880;DHT22;39791;53.184;5.486;2023-07-31T00:14:39;19.80;99.90
53880;DHT22;39791;53.184;5.486;2023-07-31T00:17:05;19.50;99.90
53880;DHT22;39791;53.184;5.486;2023-07-31T00:19:31;19.70;99.90
53880;DHT22;39791;53.184;5.486;2023-07-31T00:21:56;19.70;99.90
53880;DHT22;39791;53.184;5.486;2023-07-31T00:24:22;19.60;99.90
53880;DHT22;39791;53.184;5.486;2023-07-31T00:26:47;19.30;99.90
53880;DHT22;39791;53.184;5.486;2023-07-31T00:29:13;19.10;99.90
53880;DHT22;39791;53.184;5.486;2023-07-31T00:31:38;19.10;99.90
53880;DHT22;39791;53.184;5.486;2023-07-31T00:34:04;19.10;99.90
53880;DHT22;39791;53.184;5.486;2023-07-31T00:36:30;18.90;99.90
53880;DHT22;39791;53.184;5.486;2023-07-31T00:38:55;18.70;99.90
53880;DHT22;39791;53.184;5.486;2023-07-31T00:41:21;19.20;99.90
53880;DHT22;39791;53.184;5.486;2023-07-31T00:43:46;19.50;99.90
53880;DHT22;39791;53.184;5.486;2023-07-31T00:46:12;18.70;99.90
53880;DHT22;39791;53.184;5.486;2023-07-31T00:48:39;19.00;99.90
53880;DHT22;39791;53.184;5.486;2023-07-31T00:51:04;18.60;99.90
53880;DHT22;39791;53.184;5.486;2023-07-31T00:53:30;18.60;99.90
53880;DHT22;39791;53.184;5.486;2023-07-31T00:55:56;18.50;99.90
53880;DHT22;39791;53.184;5.486;2023-07-31T00:58:22;19.20;99.90
53880;DHT22;39791;53.184;5.486;2023-07-31T01:00:48;18.90;99.90
53880;DHT22;39791;53.184;5.486;2023-07-31T01:03:14;18.50;99.90
53880;DHT22;39791;53.184;5.486;2023-07-31T01:06:07;19.00;99.90
53880;DHT22;39791;53.184;5.486;2023-07-31T01:09:07;19.40;99.90
53880;DHT22;39791;53.184;5.486;2023-07-31T01:11:42;18.60;99.90
53880;DHT22;39791;53.184;5.486;2023-07-31T01:14:08;18.40;99.90
53880;DHT22;39791;53.184;5.486;2023-07-31T01:16:34;19.40;99.90
53880;DHT22;39791;53.184;5.486;2023-07-31T01:18:59;19.30;99.90
53880;DHT22;39791;53.184;5.486;2023-07-31T01:26:45;19.10;99.90
53880;DHT22;39791;53.184;5.486;2023-07-31T01:29:32;18.90;99.90
53880;DHT22;39791;53.184;5.486;2023-07-31T01:32:01;19.30;99.90
53880;DHT22;39791;53.184;5.486;2023-07-31T01:34:28;18.60;99.90
53880;DHT22;39791;53.184;5.486;2023-07-31T01:36:55;19.10;99.90
53880;DHT22;39791;53.184;5.486;2023-07-31T01:39:21;18.40;99.90
53880;DHT22;39791;53.184;5.486;2023-07-31T01:41:46;18.30;99.90
53880;DHT22;39791;53.184;5.486;2023-07-31T01:44:12;18.50;99.90
53880;DHT22;39791;53.184;5.486;2023-07-31T01:46:37;19.10;99.90
53880;DHT22;39791;53.184;5.486;2023-07-31T01:49:03;18.30;99.90
53880;DHT22;39791;53.184;5.486;2023-07-31T01:51:31;18.80;99.90
53880;DHT22;39791;53.184;5.486;2023-07-31T01:54:02;18.20;99.90
53880;DHT22;39791;53.184;5.486;2023-07-31T01:56:28;18.70;99.90
53880;DHT22;39791;53.184;5.486;2023-07-31T01:58:53;18.20;99.90
53880;DHT22;39791;53.184;5.486;2023-07-31T02:01:19;18.80;99.90
53880;DHT22;39791;53.184;5.486;2023-07-31T02:03:45;19.40;99.90
53880;DHT22;39791;53.184;5.486;2023-07-31T02:06:10;18.40;99.90
53880;DHT22;39791;53.184;5.486;2023-07-31T02:08:36;19.20;99.90
53880;DHT22;39791;53.184;5.486;2023-07-31T02:11:02;19.30;99.90
53880;DHT22;39791;53.184;5.486;2023-07-31T02:13:27;18.20;99.90
53880;DHT22;39791;53.184;5.486;2023-07-31T02:15:53;18.20;99.90
53880;DHT22;39791;53.184;5.486;2023-07-31T02:18:19;19.10;99.90
53880;DHT22;39791;53.184;5.486;2023-07-31T02:20:51;19.30;99.90
53880;DHT22;39791;53.184;5.486;2023-07-31T02:23:20;18.20;99.90
53880;DHT22;39791;53.184;5.486;2023-07-31T02:25:46;19.10;99.90
53880;DHT22;39791;53.184;5.486;2023-07-31T02:28:12;18.10;99.90
53880;DHT22;39791;53.184;5.486;2023-07-31T02:30:38;18.20;99.90
53880;DHT22;39791;53.184;5.486;2023-07-31T02:33:05;19.10;99.90
53880;DHT22;39791;53.184;5.486;2023-07-31T02:35:31;18.00;99.90
53880;DHT22;39791;53.184;5.486;2023-07-31T02:37:56;19.10;99.90
53880;DHT22;39791;53.184;5.486;2023-07-31T02:40:22;18.00;99.90
53880;DHT22;39791;53.184;5.486;2023-07-31T02:42:48;19.00;99.90
53880;DHT22;39791;53.184;5.486;2023-07-31T02:45:14;19.30;99.90
53880;DHT22;39791;53.184;5.486;2023-07-31T02:47:40;17.90;99.90
53880;DHT22;39791;53.184;5.486;2023-07-31T02:50:06;19.40;99.90
53880;DHT22;39791;53.184;5.486;2023-07-31T02:52:31;19.40;99.90
53880;DHT22;39791;53.184;5.486;2023-07-31T02:54:57;19.40;99.90
53880;DHT22;39791;53.184;5.486;2023-07-31T02:57:23;19.30;99.90
53880;DHT22;39791;53.184;5.486;2023-07-31T02:59:49;18.30;99.90
53880;DHT22;39791;53.184;5.486;2023-07-31T03:02:14;18.20;99.90
53880;DHT22;39791;53.184;5.486;2023-07-31T03:04:40;17.80;99.90
53880;DHT22;39791;53.184;5.486;2023-07-31T03:07:06;19.20;99.90
53880;DHT22;39791;53.184;5.486;2023-07-31T03:09:31;19.30;99.90
53880;DHT22;39791;53.184;5.486;2023-07-31T03:11:57;19.10;99.90
53880;DHT22;39791;53.184;5.486;2023-07-31T03:14:23;19.10;99.90
53880;DHT22;39791;53.184;5.486;2023-07-31T03:16:49;18.30;99.90
53880;DHT22;39791;53.184;5.486;2023-07-31T03:19:14;17.80;99.90
53880;DHT22;39791;53.184;5.486;2023-07-31T03:21:40;17.70;99.90
53880;DHT22;39791;53.184;5.486;2023-07-31T03:24:06;17.70;99.90
53880;DHT22;39791;53.184;5.486;2023-07-31T03:26:32;18.00;99.90
53880;DHT22;39791;53.184;5.486;2023-07-31T03:28:58;18.20;99.90
53880;DHT22;39791;53.184;5.486;2023-07-31T03:31:23;19.60;99.90
53880;DHT22;39791;53.184;5.486;2023-07-31T03:33:49;18.20;99.90
53880;DHT22;39791;53.184;5.486;2023-07-31T03:36:14;19.70;99.90
53880;DHT22;39791;53.184;5.486;2023-07-31T03:38:40;19.40;99.90
53880;DHT22;39791;53.184;5.486;2023-07-31T03:41:06;17.80;99.90
53880;DHT22;39791;53.184;5.486;2023-07-31T03:43:32;20.00;99.90
53880;DHT22;39791;53.184;5.486;2023-07-31T03:45:59;18.20;99.90
53880;DHT22;39791;53.184;5.486;2023-07-31T03:48:25;19.30;99.90
53880;DHT22;39791;53.184;5.486;2023-07-31T03:50:51;18.40;99.90
53880;DHT22;39791;53.184;5.486;2023-07-31T03:53:16;18.10;99.90
53880;DHT22;39791;53.184;5.486;2023-07-31T03:55:42;18.80;99.90
53880;DHT22;39791;53.184;5.486;2023-07-31T03:58:07;18.00;99.90
53880;DHT22;39791;53.184;5.486;2023-07-31T04:00:33;18.00;99.90
53880;DHT22;39791;53.184;5.486;2023-07-31T04:02:58;18.30;99.90
53880;DHT22;39791;53.184;5.486;2023-07-31T04:05:24;20.00;99.90
53880;DHT22;39791;53.184;5.486;2023-07-31T04:07:50;20.00;99.90
53880;DHT22;39791;53.184;5.486;2023-07-31T04:10:15;19.50;99.90
53880;DHT22;39791;53.184;5.486;2023-07-31T04:12:41;20.00;99.90
53880;DHT22;39791;53.184;5.486;2023-07-31T04:15:07;19.80;99.90
53880;DHT22;39791;53.184;5.486;2023-07-31T04:17:32;19.80;99.90
53880;DHT22;39791;53.184;5.486;2023-07-31T04:19:58;17.90;99.90
53880;DHT22;39791;53.184;5.486;2023-07-31T04:22:24;19.70;99.90
53880;DHT22;39791;53.184;5.486;2023-07-31T04:24:49;18.80;99.90
53880;DHT22;39791;53.184;5.486;2023-07-31T04:27:15;18.00;99.90
53880;DHT22;39791;53.184;5.486;2023-07-31T04:29:40;20.00;99.90
53880;DHT22;39791;53.184;5.486;2023-07-31T04:32:08;18.00;99.90
53880;DHT22;39791;53.184;5.486;2023-07-31T04:34:34;18.30;99.90
53880;DHT22;39791;53.184;5.486;2023-07-31T04:36:59;19.90;99.90
53880;DHT22;39791;53.184;5.486;2023-07-31T04:39:25;20.10;99.90
53880;DHT22;39791;53.184;5.486;2023-07-31T04:41:50;20.10;99.90
53880;DHT22;39791;53.184;5.486;2023-07-31T04:44:16;18.20;99.90
53880;DHT22;39791;53.184;5.486;2023-07-31T04:46:41;18.10;99.90
53880;DHT22;39791;53.184;5.486;2023-07-31T04:49:07;20.10;99.90
53880;DHT22;39791;53.184;5.486;2023-07-31T04:51:32;19.10;99.90
53880;DHT22;39791;53.184;5.486;2023-07-31T04:53:58;20.40;99.90
53880;DHT22;39791;53.184;5.486;2023-07-31T04:56:24;19.20;99.90
53880;DHT22;39791;53.184;5.486;2023-07-31T04:58:49;20.20;99.90
53880;DHT22;39791;53.184;5.486;2023-07-31T05:01:15;20.10;99.90
53880;DHT22;39791;53.184;5.486;2023-07-31T05:03:40;18.10;99.90
53880;DHT22;39791;53.184;5.486;2023-07-31T05:06:06;20.30;99.90
53880;DHT22;39791;53.184;5.486;2023-07-31T05:08:31;20.30;99.90
53880;DHT22;39791;53.184;5.486;2023-07-31T05:10:57;19.30;99.90
53880;DHT22;39791;53.184;5.486;2023-07-31T05:13:23;20.30;99.90
53880;DHT22;39791;53.184;5.486;2023-07-31T05:15:48;20.00;99.90
53880;DHT22;39791;53.184;5.486;2023-07-31T05:18:15;19.30;99.90
53880;DHT22;39791;53.184;5.486;2023-07-31T05:20:40;19.30;99.90
53880;DHT22;39791;53.184;5.486;2023-07-31T05:23:06;18.60;99.90
53880;DHT22;39791;53.184;5.486;2023-07-31T05:25:32;19.90;99.90
53880;DHT22;39791;53.184;5.486;2023-07-31T05:27:57;18.30;99.90
53880;DHT22;39791;53.184;5.486;2023-07-31T05:30:23;20.10;99.90
53880;DHT22;39791;53.184;5.486;2023-07-31T05:32:49;18.30;99.90
53880;DHT22;39791;53.184;5.486;2023-07-31T05:35:14;18.30;99.90
53880;DHT22;39791;53.184;5.486;2023-07-31T05:37:40;20.40;99.90
53880;DHT22;39791;53.184;5.486;2023-07-31T05:40:06;20.70;99.90
53880;DHT22;39791;53.184;5.486;2023-07-31T05:42:32;19.50;99.90
53880;DHT22;39791;53.184;5.486;2023-07-31T05:44:57;20.30;99.90
53880;DHT22;39791;53.184;5.486;2023-07-31T05:47:23;18.30;99.90
53880;DHT22;39791;53.184;5.486;2023-07-31T05:49:49;20.70;99.90
53880;DHT22;39791;53.184;5.486;2023-07-31T05:52:15;18.50;99.90
53880;DHT22;39791;53.184;5.486;2023-07-31T05:54:41;18.90;99.90
53880;DHT22;39791;53.184;5.486;2023-07-31T05:57:07;20.70;99.90
53880;DHT22;39791;53.184;5.486;2023-07-31T05:59:33;18.40;99.90
53880;DHT22;39791;53.184;5.486;2023-07-31T06:01:59;20.80;99.90
53880;DHT22;39791;53.184;5.486;2023-07-31T06:04:25;20.70;99.90
53880;DHT22;39791;53.184;5.486;2023-07-31T06:06:51;19.20;99.90
53880;DHT22;39791;53.184;5.486;2023-07-31T06:09:17;19.50;99.90
53880;DHT22;39791;53.184;5.486;2023-07-31T06:11:42;20.90;99.90
53880;DHT22;39791;53.184;5.486;2023-07-31T06:14:08;18.70;99.90
53880;DHT22;39791;53.184;5.486;2023-07-31T06:16:34;20.90;99.90
53880;DHT22;39791;53.184;5.486;2023-07-31T06:19:00;20.50;99.90
53880;DHT22;39791;53.184;5.486;2023-07-31T06:21:26;19.90;99.90
53880;DHT22;39791;53.184;5.486;2023-07-31T06:23:52;18.60;99.90
53880;DHT22;39791;53.184;5.486;2023-07-31T06:26:17;18.40;99.90
53880;DHT22;39791;53.184;5.486;2023-07-31T06:28:43;21.00;99.90
53880;DHT22;39791;53.184;5.486;2023-07-31T06:31:09;18.50;99.90
53880;DHT22;39791;53.184;5.486;2023-07-31T06:33:34;19.90;99.90
53880;DHT22;39791;53.184;5.486;2023-07-31T06:36:00;20.70;99.90
53880;DHT22;39791;53.184;5.486;2023-07-31T06:38:26;21.00;99.90
53880;DHT22;39791;53.184;5.486;2023-07-31T06:40:52;18.40;99.90
53880;DHT22;39791;53.184;5.486;2023-07-31T06:43:18;20.70;99.90
53880;DHT22;39791;53.184;5.486;2023-07-31T06:45:44;20.40;99.90
53880;DHT22;39791;53.184;5.486;2023-07-31T06:48:09;18.70;99.90
53880;DHT22;39791;53.184;5.486;2023-07-31T06:50:35;20.90;99.90
53880;DHT22;39791;53.184;5.486;2023-07-31T06:53:01;21.00;99.90
53880;DHT22;39791;53.184;5.486;2023-07-31T06:55:26;18.50;99.90
53880;DHT22;39791;53.184;5.486;2023-07-31T06:57:54;18.50;99.90
53880;DHT22;39791;53.184;5.486;2023-07-31T07:00:21;21.20;99.90
53880;DHT22;39791;53.184;5.486;2023-07-31T07:02:47;21.20;99.90
53880;DHT22;39791;53.184;5.486;2023-07-31T07:05:14;21.10;99.90
53880;DHT22;39791;53.184;5.486;2023-07-31T07:07:40;19.20;99.90
53880;DHT22;39791;53.184;5.486;2023-07-31T07:10:06;19.90;99.90
53880;DHT22;39791;53.184;5.486;2023-07-31T07:12:33;21.30;99.90
53880;DHT22;39791;53.184;5.486;2023-07-31T07:14:59;19.70;99.90
53880;DHT22;39791;53.184;5.486;2023-07-31T07:17:26;21.10;99.90
53880;DHT22;39791;53.184;5.486;2023-07-31T07:19:51;20.60;99.90
53880;DHT22;39791;53.184;5.486;2023-07-31T07:22:17;21.40;99.90
53880;DHT22;39791;53.184;5.486;2023-07-31T07:24:43;18.70;99.90
53880;DHT22;39791;53.184;5.486;2023-07-31T07:27:09;20.40;99.90
53880;DHT22;39791;53.184;5.486;2023-07-31T07:29:34;18.90;99.90
53880;DHT22;39791;53.184;5.486;2023-07-31T07:32:00;20.80;99.90
53880;DHT22;39791;53.184;5.486;2023-07-31T07:34:27;19.80;99.90
53880;DHT22;39791;53.184;5.486;2023-07-31T07:36:53;19.50;99.90
53880;DHT22;39791;53.184;5.486;2023-07-31T07:39:19;19.20;99.90
53880;DHT22;39791;53.184;5.486;2023-07-31T07:41:45;19.20;99.90
53880;DHT22;39791;53.184;5.486;2023-07-31T07:44:12;19.50;99.90
53880;DHT22;39791;53.184;5.486;2023-07-31T07:46:37;21.00;99.90
53880;DHT22;39791;53.184;5.486;2023-07-31T07:49:03;22.60;99.90
53880;DHT22;39791;53.184;5.486;2023-07-31T07:51:29;22.60;99.90
53880;DHT22;39791;53.184;5.486;2023-07-31T07:53:56;22.60;99.90
53880;DHT22;39791;53.184;5.486;2023-07-31T07:56:22;22.70;99.90
53880;DHT22;39791;53.184;5.486;2023-07-31T07:58:49;19.70;99.90
53880;DHT22;39791;53.184;5.486;2023-07-31T08:01:15;22.50;99.90
53880;DHT22;39791;53.184;5.486;2023-07-31T08:03:41;20.00;99.90
53880;DHT22;39791;53.184;5.486;2023-07-31T08:06:06;20.90;99.90
53880;DHT22;39791;53.184;5.486;2023-07-31T08:08:37;22.70;99.90
53880;DHT22;39791;53.184;5.486;2023-07-31T08:11:03;21.70;99.90
53880;DHT22;39791;53.184;5.486;2023-07-31T08:13:29;22.80;99.90
53880;DHT22;39791;53.184;5.486;2023-07-31T08:15:55;21.80;99.90
53880;DHT22;39791;53.184;5.486;2023-07-31T08:18:20;21.40;99.90
53880;DHT22;39791;53.184;5.486;2023-07-31T08:20:46;22.80;99.90
53880;DHT22;39791;53.184;5.486;2023-07-31T08:23:12;22.70;99.90
53880;DHT22;39791;53.184;5.486;2023-07-31T08:25:38;22.10;99.90
53880;DHT22;39791;53.184;5.486;2023-07-31T08:28:04;22.70;99.90
53880;DHT22;39791;53.184;5.486;2023-07-31T08:30:31;22.50;99.90
53880;DHT22;39791;53.184;5.486;2023-07-31T08:32:57;19.70;99.90
53880;DHT22;39791;53.184;5.486;2023-07-31T08:35:23;22.50;99.90
53880;DHT22;39791;53.184;5.486;2023-07-31T08:37:49;22.40;99.90
53880;DHT22;39791;53.184;5.486;2023-07-31T08:40:14;22.60;99.90
53880;DHT22;39791;53.184;5.486;2023-07-31T08:42:47;22.50;99.90
53880;DHT22;39791;53.184;5.486;2023-07-31T08:45:19;20.90;99.90
53880;DHT22;39791;53.184;5.486;2023-07-31T08:47:50;22.50;99.90
53880;DHT22;39791;53.184;5.486;2023-07-31T08:50:20;21.20;99.90
53880;DHT22;39791;53.184;5.486;2023-07-31T08:52:47;19.60;99.90
53880;DHT22;39791;53.184;5.486;2023-07-31T08:55:13;20.70;99.90
53880;DHT22;39791;53.184;5.486;2023-07-31T08:57:39;19.90;99.90
53880;DHT22;39791;53.184;5.486;2023-07-31T09:00:06;19.90;99.90
53880;DHT22;39791;53.184;5.486;2023-07-31T09:03:13;20.70;99.90
53880;DHT22;39791;53.184;5.486;2023-07-31T09:05:31;19.60;99.90
53880;DHT22;39791;53.184;5.486;2023-07-31T09:07:57;20.70;99.90
53880;DHT22;39791;53.184;5.486;2023-07-31T09:10:23;22.70;99.90
53880;DHT22;39791;53.184;5.486;2023-07-31T09:12:51;20.00;99.90
53880;DHT22;39791;53.184;5.486;2023-07-31T09:15:17;22.80;99.90
53880;DHT22;39791;53.184;5.486;2023-07-31T09:17:43;22.50;99.90
53880;DHT22;39791;53.184;5.486;2023-07-31T09:20:17;21.90;99.90
53880;DHT22;39791;53.184;5.486;2023-07-31T09:22:44;22.80;99.90
53880;DHT22;39791;53.184;5.486;2023-07-31T09:25:23;22.60;99.90
53880;DHT22;39791;53.184;5.486;2023-07-31T09:27:54;20.00;99.90
53880;DHT22;39791;53.184;5.486;2023-07-31T09:30:21;21.10;99.90
53880;DHT22;39791;53.184;5.486;2023-07-31T09:32:48;22.00;99.90
53880;DHT22;39791;53.184;5.486;2023-07-31T09:35:20;20.00;99.90
53880;DHT22;39791;53.184;5.486;2023-07-31T09:37:50;19.80;99.90
53880;DHT22;39791;53.184;5.486;2023-07-31T09:40:49;22.60;99.90
53880;DHT22;39791;53.184;5.486;2023-07-31T09:43:19;19.90;99.90
53880;DHT22;39791;53.184;5.486;2023-07-31T09:45:46;20.50;99.90
53880;DHT22;39791;53.184;5.486;2023-07-31T09:48:14;22.90;99.90
53880;DHT22;39791;53.184;5.486;2023-07-31T09:50:47;20.80;99.90
53880;DHT22;39791;53.184;5.486;2023-07-31T09:53:13;21.80;99.90
53880;DHT22;39791;53.184;5.486;2023-07-31T09:55:41;20.60;99.90
53880;DHT22;39791;53.184;5.486;2023-07-31T09:58:09;21.00;99.90
53880;DHT22;39791;53.184;5.486;2023-07-31T10:00:36;21.10;99.90
53880;DHT22;39791;53.184;5.486;2023-07-31T10:03:05;21.70;99.90
53880;DHT22;39791;53.184;5.486;2023-07-31T10:05:38;21.10;99.90
53880;DHT22;39791;53.184;5.486;2023-07-31T10:08:06;22.90;99.90
53880;DHT22;39791;53.184;5.486;2023-07-31T10:10:32;23.80;99.90
53880;DHT22;39791;53.184;5.486;2023-07-31T10:13:01;21.10;99.90
53880;DHT22;39791;53.184;5.486;2023-07-31T10:15:28;21.90;99.90
53880;DHT22;39791;53.184;5.486;2023-07-31T10:17:54;23.70;99.90
53880;DHT22;39791;53.184;5.486;2023-07-31T10:20:20;21.00;99.90
53880;DHT22;39791;53.184;5.486;2023-07-31T10:22:46;23.70;99.90
53880;DHT22;39791;53.184;5.486;2023-07-31T10:25:15;23.80;99.90
53880;DHT22;39791;53.184;5.486;2023-07-31T10:27:41;21.10;99.90
53880;DHT22;39791;53.184;5.486;2023-07-31T10:30:09;23.00;99.90
53880;DHT22;39791;53.184;5.486;2023-07-31T10:32:38;22.80;99.90
53880;DHT22;39791;53.184;5.486;2023-07-31T10:35:06;22.00;99.90
53880;DHT22;39791;53.184;5.486;2023-07-31T10:37:40;20.90;99.90
53880;DHT22;39791;53.184;5.486;2023-07-31T10:40:10;23.40;99.90
53880;DHT22;39791;53.184;5.486;2023-07-31T10:45:13;20.70;99.90
53880;DHT22;39791;53.184;5.486;2023-07-31T10:47:44;23.30;99.90
53880;DHT22;39791;53.184;5.486;2023-07-31T10:50:13;23.30;99.90
53880;DHT22;39791;53.184;5.486;2023-07-31T10:52:44;23.50;99.90
53880;DHT22;39791;53.184;5.486;2023-07-31T10:55:28;23.60;99.90
53880;DHT22;39791;53.184;5.486;2023-07-31T10:57:56;23.70;99.90
53880;DHT22;39791;53.184;5.486;2023-07-31T11:00:29;21.30;99.90
53880;DHT22;39791;53.184;5.486;2023-07-31T11:08:27;21.10;99.90
53880;DHT22;39791;53.184;5.486;2023-07-31T11:16:06;23.70;99.90
53880;DHT22;39791;53.184;5.486;2023-07-31T11:18:31;23.10;99.90
53880;DHT22;39791;53.184;5.486;2023-07-31T11:20:57;23.70;99.90
53880;DHT22;39791;53.184;5.486;2023-07-31T11:23:23;22.60;99.90
53880;DHT22;39791;53.184;5.486;2023-07-31T11:25:50;23.90;99.90
53880;DHT22;39791;53.184;5.486;2023-07-31T11:28:17;23.20;99.90
53880;DHT22;39791;53.184;5.486;2023-07-31T11:30:44;23.70;99.90
53880;DHT22;39791;53.184;5.486;2023-07-31T11:33:12;23.70;99.90
53880;DHT22;39791;53.184;5.486;2023-07-31T11:35:46;23.90;99.90
53880;DHT22;39791;53.184;5.486;2023-07-31T11:38:16;21.60;99.90
53880;DHT22;39791;53.184;5.486;2023-07-31T11:40:46;23.20;99.90
53880;DHT22;39791;53.184;5.486;2023-07-31T11:43:11;23.00;99.90
53880;DHT22;39791;53.184;5.486;2023-07-31T11:45:41;22.70;99.90
53880;DHT22;39791;53.184;5.486;2023-07-31T11:48:07;22.10;99.90
53880;DHT22;39791;53.184;5.486;2023-07-31T11:50:33;23.70;99.90
53880;DHT22;39791;53.184;5.486;2023-07-31T11:53:07;23.50;99.90
53880;DHT22;39791;53.184;5.486;2023-07-31T11:55:35;22.30;99.90
53880;DHT22;39791;53.184;5.486;2023-07-31T11:58:01;23.60;99.90
53880;DHT22;39791;53.184;5.486;2023-07-31T12:00:27;22.60;99.90
53880;DHT22;39791;53.184;5.486;2023-07-31T12:02:53;21.80;99.90
53880;DHT22;39791;53.184;5.486;2023-07-31T12:05:19;23.60;99.90
53880;DHT22;39791;53.184;5.486;2023-07-31T12:07:54;23.70;99.90
53880;DHT22;39791;53.184;5.486;2023-07-31T12:13:05;22.30;99.90
53880;DHT22;39791;53.184;5.486;2023-07-31T12:18:00;23.10;99.90
53880;DHT22;39791;53.184;5.486;2023-07-31T12:20:26;22.70;99.90
53880;DHT22;39791;53.184;5.486;2023-07-31T12:22:51;21.60;99.90
53880;DHT22;39791;53.184;5.486;2023-07-31T12:25:17;23.50;99.90
53880;DHT22;39791;53.184;5.486;2023-07-31T12:27:45;22.30;99.90
53880;DHT22;39791;53.184;5.486;2023-07-31T12:30:35;23.50;99.90
53880;DHT22;39791;53.184;5.486;2023-07-31T12:33:18;22.50;99.90
53880;DHT22;39791;53.184;5.486;2023-07-31T12:35:46;21.40;99.90
53880;DHT22;39791;53.184;5.486;2023-07-31T12:38:13;22.90;99.90
53880;DHT22;39791;53.184;5.486;2023-07-31T12:40:40;23.30;99.90
53880;DHT22;39791;53.184;5.486;2023-07-31T12:43:07;22.80;99.90
53880;DHT22;39791;53.184;5.486;2023-07-31T12:45:33;23.70;99.90
53880;DHT22;39791;53.184;5.486;2023-07-31T12:47:59;21.60;99.90
53880;DHT22;39791;53.184;5.486;2023-07-31T12:50:25;23.20;99.90
53880;DHT22;39791;53.184;5.486;2023-07-31T12:52:52;21.70;99.90
53880;DHT22;39791;53.184;5.486;2023-07-31T12:55:18;23.70;99.90
53880;DHT22;39791;53.184;5.486;2023-07-31T12:57:44;22.40;99.90
53880;DHT22;39791;53.184;5.486;2023-07-31T13:00:10;22.00;99.90
53880;DHT22;39791;53.184;5.486;2023-07-31T13:02:36;23.00;99.90
53880;DHT22;39791;53.184;5.486;2023-07-31T13:05:02;22.10;99.90
53880;DHT22;39791;53.184;5.486;2023-07-31T13:07:28;22.50;99.90
53880;DHT22;39791;53.184;5.486;2023-07-31T13:09:53;24.00;99.90
53880;DHT22;39791;53.184;5.486;2023-07-31T13:12:19;22.60;99.90
53880;DHT22;39791;53.184;5.486;2023-07-31T13:14:44;23.60;99.90
53880;DHT22;39791;53.184;5.486;2023-07-31T13:17:10;24.00;99.90
53880;DHT22;39791;53.184;5.486;2023-07-31T13:19:35;23.80;99.90
53880;DHT22;39791;53.184;5.486;2023-07-31T13:22:01;23.50;99.90
53880;DHT22;39791;53.184;5.486;2023-07-31T13:24:27;22.50;99.90
53880;DHT22;39791;53.184;5.486;2023-07-31T13:26:52;23.70;99.90
53880;DHT22;39791;53.184;5.486;2023-07-31T13:29:18;23.90;99.90
53880;DHT22;39791;53.184;5.486;2023-07-31T13:31:43;23.00;99.90
53880;DHT22;39791;53.184;5.486;2023-07-31T13:34:09;22.20;99.90
53880;DHT22;39791;53.184;5.486;2023-07-31T13:36:34;22.80;99.90
53880;DHT22;39791;53.184;5.486;2023-07-31T13:39:02;23.70;99.90
53880;DHT22;39791;53.184;5.486;2023-07-31T13:41:28;22.30;99.90
53880;DHT22;39791;53.184;5.486;2023-07-31T13:43:54;23.90;99.90
53880;DHT22;39791;53.184;5.486;2023-07-31T13:46:19;22.30;99.90
53880;DHT22;39791;53.184;5.486;2023-07-31T13:48:45;22.50;99.90
53880;DHT22;39791;53.184;5.486;2023-07-31T13:51:10;23.60;99.90
53880;DHT22;39791;53.184;5.486;2023-07-31T13:53:36;22.30;99.90
53880;DHT22;39791;53.184;5.486;2023-07-31T13:56:02;23.10;99.90
53880;DHT22;39791;53.184;5.486;2023-07-31T13:58:27;23.40;99.90
53880;DHT22;39791;53.184;5.486;2023-07-31T14:00:53;23.60;99.90
53880;DHT22;39791;53.184;5.486;2023-07-31T14:03:18;22.20;99.90
53880;DHT22;39791;53.184;5.486;2023-07-31T14:05:44;22.00;99.90
53880;DHT22;39791;53.184;5.486;2023-07-31T14:08:12;22.10;99.90
53880;DHT22;39791;53.184;5.486;2023-07-31T14:10:38;22.60;99.90
53880;DHT22;39791;53.184;5.486;2023-07-31T14:13:03;22.00;99.90
53880;DHT22;39791;53.184;5.486;2023-07-31T14:15:29;22.00;99.90
53880;DHT22;39791;53.184;5.486;2023-07-31T14:17:54;23.20;99.90
53880;DHT22;39791;53.184;5.486;2023-07-31T14:20:20;23.20;99.90
53880;DHT22;39791;53.184;5.486;2023-07-31T14:22:46;23.30;99.90
53880;DHT22;39791;53.184;5.486;2023-07-31T14:25:11;21.90;99.90
53880;DHT22;39791;53.184;5.486;2023-07-31T14:27:37;21.90;99.90
53880;DHT22;39791;53.184;5.486;2023-07-31T14:30:03;22.90;99.90
53880;DHT22;39791;53.184;5.486;2023-07-31T14:32:28;23.30;99.90
53880;DHT22;39791;53.184;5.486;2023-07-31T14:34:54;21.70;99.90
53880;DHT22;39791;53.184;5.486;2023-07-31T14:37:20;22.30;99.90
53880;DHT22;39791;53.184;5.486;2023-07-31T14:39:46;21.80;99.90
53880;DHT22;39791;53.184;5.486;2023-07-31T14:42:12;23.30;99.90
53880;DHT22;39791;53.184;5.486;2023-07-31T14:44:38;22.90;99.90
53880;DHT22;39791;53.184;5.486;2023-07-31T14:47:03;21.70;99.90
53880;DHT22;39791;53.184;5.486;2023-07-31T14:49:29;23.20;99.90
53880;DHT22;39791;53.184;5.486;2023-07-31T14:51:55;21.70;99.90
53880;DHT22;39791;53.184;5.486;2023-07-31T14:54:20;22.20;99.90
53880;DHT22;39791;53.184;5.486;2023-07-31T14:56:46;22.90;99.90
53880;DHT22;39791;53.184;5.486;2023-07-31T14:59:11;22.70;99.90
53880;DHT22;39791;53.184;5.486;2023-07-31T15:01:37;21.90;99.90
53880;DHT22;39791;53.184;5.486;2023-07-31T15:04:03;22.40;99.90
53880;DHT22;39791;53.184;5.486;2023-07-31T15:06:29;22.90;99.90
53880;DHT22;39791;53.184;5.486;2023-07-31T15:08:54;23.20;99.90
53880;DHT22;39791;53.184;5.486;2023-07-31T15:11:20;23.10;99.90
53880;DHT22;39791;53.184;5.486;2023-07-31T15:13:46;22.90;99.90
53880;DHT22;39791;53.184;5.486;2023-07-31T15:16:11;22.30;99.90
53880;DHT22;39791;53.184;5.486;2023-07-31T15:18:37;22.40;99.90
53880;DHT22;39791;53.184;5.486;2023-07-31T15:21:03;22.00;99.90
53880;DHT22;39791;53.184;5.486;2023-07-31T15:23:29;21.50;99.90
53880;DHT22;39791;53.184;5.486;2023-07-31T15:25:55;21.80;99.90
53880;DHT22;39791;53.184;5.486;2023-07-31T15:28:20;21.90;99.90
53880;DHT22;39791;53.184;5.486;2023-07-31T15:30:46;23.30;99.90
53880;DHT22;39791;53.184;5.486;2023-07-31T15:33:11;21.50;99.90
53880;DHT22;39791;53.184;5.486;2023-07-31T15:35:37;22.20;99.90
53880;DHT22;39791;53.184;5.486;2023-07-31T15:38:03;21.30;99.90
53880;DHT22;39791;53.184;5.486;2023-07-31T15:40:28;21.50;99.90
53880;DHT22;39791;53.184;5.486;2023-07-31T15:42:54;22.30;99.90
53880;DHT22;39791;53.184;5.486;2023-07-31T15:45:19;22.80;99.90
53880;DHT22;39791;53.184;5.486;2023-07-31T15:47:45;23.00;99.90
53880;DHT22;39791;53.184;5.486;2023-07-31T15:50:10;21.30;99.90